• Join FlightAware (Why Join?)
  • Login
  • US Flag 
10:53AM EDT


 

Airport Tracker/Info


-or-


 

Live Flight TrackerFlight Track Log ✈ ASQ5958 ✈ 02-Jul-2013 ✈ KSLC - KDEN

Flight Track Log - Related Links

Times and Time Zones

All times are in EDT time to prevent confusion due to time zone crossing. See the ASQ5958 flight status page for this flight to view local times or setup timezone preferences in your user account.

Time Position Orientation Groundspeed Altitude Reporting Facility
EDT Latitude Longitude Course Direction KTS MPH feet Rate Location/Type
07:40PM 40.8067 -111.9794 70° East 180 207 4,900  Level Salt Lake Center
07:41PM 40.8675 -111.9836 357° North 197 227 6,800 1,680 Climbing Salt Lake Center
07:42PM 40.9344 -111.9939 353° North 238 274 8,500 1,860 Climbing Salt Lake Center
07:43PM 41.0058 -111.9981 357° North 251 289 10,700 1,860 Climbing Salt Lake Center
07:44PM 40.9222 -111.4669 66° East  Level FlightAware Approximate
07:45PM 40.9585 -111.3410 75° East  Level FlightAware Approximate
07:45PM 41.0225 -111.9114 76° East 269 310 12,400  Level Salt Lake Center
07:46PM 40.9901 -111.2126 70° East  Level FlightAware Approximate
07:46PM 41.0139 -111.8108 96° East 295 339 13,200  Level Salt Lake Center
07:47PM 41.0008 -111.6658 97° East 333 383 14,700 1,500 Climbing Salt Lake Center
07:48PM 40.9894 -111.5397 97° East 345 397 16,400 1,740 Climbing Salt Lake Center
07:49PM 40.9778 -111.4158 97° East 340 391 18,300 1,860 Climbing Salt Lake Center
07:50PM 40.9667 -111.2950 97° East 332 382 20,300 1,500 Climbing Salt Lake Center
07:51PM 40.9539 -111.1697 98° East 342 394 21,400 1,020 Climbing Salt Lake Center
07:52PM 40.9414 -111.0356 97° East 364 419 22,500 1,020 Climbing Salt Lake Center
07:53PM 40.9275 -110.8950 97° East 383 441 23,600 1,080 Climbing Salt Lake Center
07:54PM 40.9106 -110.7233 97° East 393 452 24,800 1,080 Climbing Salt Lake Center
07:55PM 40.8969 -110.5797 97° East 399 459 25,900 1,140 Climbing Salt Lake Center
07:56PM 40.8819 -110.4383 98° East 406 467 27,200 1,440 Climbing Salt Lake Center
07:57PM 40.8658 -110.2772 97° East 400 460 28,900 1,500 Climbing Salt Lake Center
07:58PM 40.8514 -110.1408 98° East 394 453 30,400 1,500 Climbing Salt Lake Center
07:59PM 40.8356 -109.9919 98° East 388 447 32,000 1,620 Climbing Salt Lake Center
08:00PM 40.8194 -109.8372 98° East 382 440 33,800 1,440 Climbing Salt Lake Center
08:01PM 40.8058 -109.7094 98° East 370 426 35,000 540 Climbing Salt Lake Center
08:02PM 40.7906 -109.5772 99° East 379 436 35,000  Level Salt Lake Center
08:03PM 40.7728 -109.4075 98° East 413 475 35,000  Level Salt Lake Center
08:04PM 40.7556 -109.2528 98° East 439 505 35,000  Level Salt Lake Center
08:05PM 40.7339 -109.0653 99° East 454 522 35,000  Level Salt Lake Center
08:06PM 40.7231 -108.9606 98° East 454 522 35,000  Level Denver Center
08:07PM 40.7053 -108.8042 98° East 450 518 35,000  Level Denver Center
08:08PM 40.6839 -108.6244 99° East 445 512 35,000  Level Denver Center
08:09PM 40.6672 -108.4686 98° East 446 513 35,000  Level Denver Center
08:10PM 40.6606 -108.2875 93° East 443 510 35,000  Level Denver Center
08:11PM 40.6536 -108.1314 93° East 444 511 35,000  Level Denver Center
08:12PM 40.6461 -107.9508 93° East 441 507 35,000  Level Denver Center
08:13PM 40.6383 -107.7947 94° East 444 511 35,000  Level Denver Center
08:14PM 40.6300 -107.6119 93° East 448 516 35,000  Level Denver Center
08:15PM 40.6231 -107.4575 93° East 444 511 35,000  Level Denver Center
08:16PM 40.6150 -107.3014 94° East 445 512 35,000  Level Denver Center
08:17PM 40.6075 -107.1361 93° East 446 513 35,000 -480 Level Denver Center
08:18PM 40.5983 -106.9717 94° East 447 514 34,100 -900 Descending Denver Center
08:19PM 40.5894 -106.8083 94° East 447 514 33,200 -1,020 Descending Denver Center
08:20PM 40.5789 -106.6114 94° East 449 517 32,100 -1,020 Descending Denver Center
08:21PM 40.5692 -106.4403 94° East 452 520 31,100 -540 Descending Denver Center
08:22PM 40.5592 -106.2839 95° East 449 517 31,000 -660 Descending Denver Center
08:23PM 40.5525 -106.1458 94° East 409 471 29,800 -1,860 Descending Denver Center
08:24PM 40.5417 -105.9800 95° East 382 440 27,300 -2,280 Descending Denver Center
08:25PM 40.5336 -105.8442 94° East 374 430 25,200 -1,980 Descending Denver Center
08:26PM 40.5250 -105.7103 95° East 368 423 23,300 -1,860 Descending Denver Center
08:27PM 40.5161 -105.5839 95° East 353 406 21,400 -1,680 Descending Denver Center
08:29PM 40.5081 -105.4578 95° East 348 400 19,500 -1,740 Descending Denver Center
08:30PM 40.4978 -105.3089 95° East 341 392 17,500 -2,100 Descending Denver Center
08:31PM 40.4356 -105.1939 125° Southeast 354 407 15,200 -1,680 Descending Denver Center
08:32PM 40.3533 -105.1422 154° Southeast 335 386 14,100 -1,080 Descending Denver Center
08:33PM 40.2553 -105.1411 180° South 331 381 13,000 -540 Descending Denver Center
08:34PM 40.1678 -105.1378 178° South 317 365 13,000  Level Denver Center
08:35PM 40.0967 -105.1369 179° South 305 351 13,000 -360 Level Denver Center
08:36PM 40.0075 -105.1161 170° South 272 313 12,300 -1,020 Descending Denver Center
08:37PM 39.9425 -105.0656 149° Southeast 273 314 11,000 -1,260 Descending Denver Center
08:38PM 39.8800 -105.0072 144° Southeast 258 297 9,700 -1,140 Descending Denver Center
08:39PM 39.8428 -104.9403 126° Southeast 227 261 8,700 -1,260 Descending Denver Center
08:40PM 39.8419 -104.8594 91° East 207 238 7,200 -1,200 Descending Denver Center
08:41PM 39.8411 -104.7961 91° East 167 192 6,300 -840 Descending Denver Center
08:42PM 39.8408 -104.7383 90° East 147 169 5,500 -480 Descending Denver Center
08:43PM 39.8417 -104.6850 89° East 147 169 5,400 -120 Descending Denver Center